sensor_id;sensor_type;location;lat;lon;timestamp;P1;durP1;ratioP1;P2;durP2;ratioP2
18853;SDS011;9556;49.374;19.446;2023-04-09T00:00:48;13.35;;;8.85;;
18853;SDS011;9556;49.374;19.446;2023-04-09T00:03:15;13.07;;;9.03;;
18853;SDS011;9556;49.374;19.446;2023-04-09T00:05:42;11.63;;;8.30;;
18853;SDS011;9556;49.374;19.446;2023-04-09T00:08:09;12.88;;;8.30;;
18853;SDS011;9556;49.374;19.446;2023-04-09T00:10:36;11.93;;;8.55;;
18853;SDS011;9556;49.374;19.446;2023-04-09T00:13:03;11.30;;;8.37;;
18853;SDS011;9556;49.374;19.446;2023-04-09T00:15:32;12.63;;;8.57;;
18853;SDS011;9556;49.374;19.446;2023-04-09T00:18:00;12.17;;;7.90;;
18853;SDS011;9556;49.374;19.446;2023-04-09T00:20:27;13.07;;;8.60;;
18853;SDS011;9556;49.374;19.446;2023-04-09T00:22:54;12.48;;;8.25;;
18853;SDS011;9556;49.374;19.446;2023-04-09T00:25:22;12.27;;;8.35;;
18853;SDS011;9556;49.374;19.446;2023-04-09T00:27:49;11.85;;;8.90;;
18853;SDS011;9556;49.374;19.446;2023-04-09T00:30:16;13.30;;;8.83;;
18853;SDS011;9556;49.374;19.446;2023-04-09T00:32:45;12.75;;;8.63;;
18853;SDS011;9556;49.374;19.446;2023-04-09T00:35:12;12.23;;;8.80;;
18853;SDS011;9556;49.374;19.446;2023-04-09T00:37:40;12.20;;;8.20;;
18853;SDS011;9556;49.374;19.446;2023-04-09T00:40:07;13.57;;;9.15;;
18853;SDS011;9556;49.374;19.446;2023-04-09T00:42:35;13.38;;;9.50;;
18853;SDS011;9556;49.374;19.446;2023-04-09T00:45:02;13.82;;;9.70;;
18853;SDS011;9556;49.374;19.446;2023-04-09T00:47:30;14.27;;;10.23;;
18853;SDS011;9556;49.374;19.446;2023-04-09T00:49:58;13.32;;;9.63;;
18853;SDS011;9556;49.374;19.446;2023-04-09T00:52:26;17.45;;;10.07;;
18853;SDS011;9556;49.374;19.446;2023-04-09T00:54:55;12.25;;;8.45;;
18853;SDS011;9556;49.374;19.446;2023-04-09T00:57:22;12.95;;;8.57;;
18853;SDS011;9556;49.374;19.446;2023-04-09T00:59:49;12.57;;;8.63;;
18853;SDS011;9556;49.374;19.446;2023-04-09T01:02:17;11.75;;;8.75;;
18853;SDS011;9556;49.374;19.446;2023-04-09T01:04:44;12.40;;;8.23;;
18853;SDS011;9556;49.374;19.446;2023-04-09T01:07:15;12.32;;;8.10;;
18853;SDS011;9556;49.374;19.446;2023-04-09T01:09:46;12.20;;;8.13;;
18853;SDS011;9556;49.374;19.446;2023-04-09T01:12:17;11.18;;;8.20;;
18853;SDS011;9556;49.374;19.446;2023-04-09T01:14:48;12.25;;;8.18;;
18853;SDS011;9556;49.374;19.446;2023-04-09T01:17:17;10.80;;;7.50;;
18853;SDS011;9556;49.374;19.446;2023-04-09T01:19:47;11.05;;;8.30;;
18853;SDS011;9556;49.374;19.446;2023-04-09T01:22:27;11.73;;;8.38;;
18853;SDS011;9556;49.374;19.446;2023-04-09T01:24:59;12.63;;;8.67;;
18853;SDS011;9556;49.374;19.446;2023-04-09T01:27:26;12.63;;;7.97;;
18853;SDS011;9556;49.374;19.446;2023-04-09T01:30:01;14.05;;;7.97;;
18853;SDS011;9556;49.374;19.446;2023-04-09T01:32:30;12.48;;;8.63;;
18853;SDS011;9556;49.374;19.446;2023-04-09T01:34:59;12.20;;;8.03;;
18853;SDS011;9556;49.374;19.446;2023-04-09T01:37:27;11.75;;;8.32;;
18853;SDS011;9556;49.374;19.446;2023-04-09T01:39:54;11.88;;;8.55;;
18853;SDS011;9556;49.374;19.446;2023-04-09T01:42:22;13.98;;;9.32;;
18853;SDS011;9556;49.374;19.446;2023-04-09T01:44:49;12.48;;;9.30;;
18853;SDS011;9556;49.374;19.446;2023-04-09T01:47:18;13.52;;;9.82;;
18853;SDS011;9556;49.374;19.446;2023-04-09T01:49:45;12.77;;;9.10;;
18853;SDS011;9556;49.374;19.446;2023-04-09T01:52:12;12.52;;;9.40;;
18853;SDS011;9556;49.374;19.446;2023-04-09T01:54:41;12.80;;;8.98;;
18853;SDS011;9556;49.374;19.446;2023-04-09T01:57:08;12.52;;;8.68;;
18853;SDS011;9556;49.374;19.446;2023-04-09T01:59:35;11.20;;;8.23;;
18853;SDS011;9556;49.374;19.446;2023-04-09T02:02:04;10.50;;;7.43;;
18853;SDS011;9556;49.374;19.446;2023-04-09T02:04:34;11.23;;;8.27;;
18853;SDS011;9556;49.374;19.446;2023-04-09T02:07:04;11.33;;;8.00;;
18853;SDS011;9556;49.374;19.446;2023-04-09T02:09:33;11.40;;;7.90;;
18853;SDS011;9556;49.374;19.446;2023-04-09T02:12:02;14.93;;;9.10;;
18853;SDS011;9556;49.374;19.446;2023-04-09T02:14:30;11.30;;;8.35;;
18853;SDS011;9556;49.374;19.446;2023-04-09T02:16:58;12.35;;;8.15;;
18853;SDS011;9556;49.374;19.446;2023-04-09T02:19:37;11.52;;;8.13;;
18853;SDS011;9556;49.374;19.446;2023-04-09T02:22:05;13.35;;;8.68;;
18853;SDS011;9556;49.374;19.446;2023-04-09T02:24:32;13.67;;;8.27;;
18853;SDS011;9556;49.374;19.446;2023-04-09T02:26:59;12.90;;;8.40;;
18853;SDS011;9556;49.374;19.446;2023-04-09T02:29:26;11.55;;;8.18;;
18853;SDS011;9556;49.374;19.446;2023-04-09T02:31:53;12.18;;;8.10;;
18853;SDS011;9556;49.374;19.446;2023-04-09T02:34:21;10.45;;;7.63;;
18853;SDS011;9556;49.374;19.446;2023-04-09T02:36:49;12.35;;;8.05;;
18853;SDS011;9556;49.374;19.446;2023-04-09T02:39:17;13.23;;;8.77;;
18853;SDS011;9556;49.374;19.446;2023-04-09T02:41:44;13.03;;;9.10;;
18853;SDS011;9556;49.374;19.446;2023-04-09T02:44:11;15.07;;;10.38;;
18853;SDS011;9556;49.374;19.446;2023-04-09T02:46:39;16.47;;;11.40;;
18853;SDS011;9556;49.374;19.446;2023-04-09T02:49:06;16.33;;;11.18;;
18853;SDS011;9556;49.374;19.446;2023-04-09T02:51:34;15.63;;;10.73;;
18853;SDS011;9556;49.374;19.446;2023-04-09T02:54:02;14.07;;;9.57;;
18853;SDS011;9556;49.374;19.446;2023-04-09T02:56:30;12.90;;;8.27;;
18853;SDS011;9556;49.374;19.446;2023-04-09T02:58:57;15.93;;;9.93;;
18853;SDS011;9556;49.374;19.446;2023-04-09T03:01:24;14.48;;;9.52;;
18853;SDS011;9556;49.374;19.446;2023-04-09T03:03:51;13.77;;;8.52;;
18853;SDS011;9556;49.374;19.446;2023-04-09T03:06:19;10.97;;;7.57;;
18853;SDS011;9556;49.374;19.446;2023-04-09T03:08:46;11.05;;;8.25;;
18853;SDS011;9556;49.374;19.446;2023-04-09T03:11:14;12.32;;;8.35;;
18853;SDS011;9556;49.374;19.446;2023-04-09T03:13:41;12.88;;;8.57;;
18853;SDS011;9556;49.374;19.446;2023-04-09T03:16:09;12.85;;;8.48;;
18853;SDS011;9556;49.374;19.446;2023-04-09T03:18:36;11.23;;;7.80;;
18853;SDS011;9556;49.374;19.446;2023-04-09T03:21:03;10.88;;;7.80;;
18853;SDS011;9556;49.374;19.446;2023-04-09T03:23:31;12.45;;;8.27;;
18853;SDS011;9556;49.374;19.446;2023-04-09T03:26:00;12.13;;;8.50;;
18853;SDS011;9556;49.374;19.446;2023-04-09T03:28:28;12.73;;;8.23;;
18853;SDS011;9556;49.374;19.446;2023-04-09T03:30:55;11.07;;;7.90;;
18853;SDS011;9556;49.374;19.446;2023-04-09T03:33:23;10.63;;;7.70;;
18853;SDS011;9556;49.374;19.446;2023-04-09T03:35:50;11.57;;;7.65;;
18853;SDS011;9556;49.374;19.446;2023-04-09T03:38:18;12.23;;;8.38;;
18853;SDS011;9556;49.374;19.446;2023-04-09T03:40:45;14.18;;;9.43;;
18853;SDS011;9556;49.374;19.446;2023-04-09T03:43:12;13.20;;;9.30;;
18853;SDS011;9556;49.374;19.446;2023-04-09T03:45:41;13.90;;;9.27;;
18853;SDS011;9556;49.374;19.446;2023-04-09T03:48:09;12.32;;;9.00;;
18853;SDS011;9556;49.374;19.446;2023-04-09T03:50:37;12.88;;;8.88;;
18853;SDS011;9556;49.374;19.446;2023-04-09T03:53:04;11.48;;;8.48;;
18853;SDS011;9556;49.374;19.446;2023-04-09T03:55:32;11.00;;;7.85;;
18853;SDS011;9556;49.374;19.446;2023-04-09T03:57:59;12.70;;;8.30;;
18853;SDS011;9556;49.374;19.446;2023-04-09T04:00:26;12.43;;;8.00;;
18853;SDS011;9556;49.374;19.446;2023-04-09T04:02:54;13.27;;;8.43;;
18853;SDS011;9556;49.374;19.446;2023-04-09T04:05:22;12.55;;;8.38;;
18853;SDS011;9556;49.374;19.446;2023-04-09T04:07:50;12.07;;;8.02;;
18853;SDS011;9556;49.374;19.446;2023-04-09T04:10:17;11.55;;;8.20;;
18853;SDS011;9556;49.374;19.446;2023-04-09T04:12:44;11.33;;;8.23;;
18853;SDS011;9556;49.374;19.446;2023-04-09T04:15:11;10.60;;;7.47;;
18853;SDS011;9556;49.374;19.446;2023-04-09T04:17:39;10.98;;;7.65;;
18853;SDS011;9556;49.374;19.446;2023-04-09T04:20:08;11.18;;;7.88;;
18853;SDS011;9556;49.374;19.446;2023-04-09T04:22:35;11.13;;;8.02;;
18853;SDS011;9556;49.374;19.446;2023-04-09T04:25:02;12.43;;;7.27;;
18853;SDS011;9556;49.374;19.446;2023-04-09T04:27:29;10.23;;;7.30;;
18853;SDS011;9556;49.374;19.446;2023-04-09T04:29:57;10.10;;;7.50;;
18853;SDS011;9556;49.374;19.446;2023-04-09T04:32:26;10.10;;;7.20;;
18853;SDS011;9556;49.374;19.446;2023-04-09T04:34:53;10.85;;;7.70;;
18853;SDS011;9556;49.374;19.446;2023-04-09T04:37:21;9.97;;;7.63;;
18853;SDS011;9556;49.374;19.446;2023-04-09T04:39:48;11.25;;;7.70;;
18853;SDS011;9556;49.374;19.446;2023-04-09T04:42:16;11.30;;;8.07;;
18853;SDS011;9556;49.374;19.446;2023-04-09T04:44:43;12.80;;;8.60;;
18853;SDS011;9556;49.374;19.446;2023-04-09T04:47:10;12.17;;;8.57;;
18853;SDS011;9556;49.374;19.446;2023-04-09T04:49:38;11.88;;;8.63;;
18853;SDS011;9556;49.374;19.446;2023-04-09T04:52:05;12.13;;;8.17;;
18853;SDS011;9556;49.374;19.446;2023-04-09T04:54:34;10.37;;;7.50;;
18853;SDS011;9556;49.374;19.446;2023-04-09T04:57:01;11.13;;;7.18;;
18853;SDS011;9556;49.374;19.446;2023-04-09T04:59:28;10.93;;;7.63;;
18853;SDS011;9556;49.374;19.446;2023-04-09T05:01:55;10.13;;;7.43;;
18853;SDS011;9556;49.374;19.446;2023-04-09T05:04:22;10.87;;;7.37;;
18853;SDS011;9556;49.374;19.446;2023-04-09T05:06:50;11.20;;;7.63;;
18853;SDS011;9556;49.374;19.446;2023-04-09T05:09:20;10.93;;;7.60;;
18853;SDS011;9556;49.374;19.446;2023-04-09T05:11:48;11.50;;;7.90;;
18853;SDS011;9556;49.374;19.446;2023-04-09T05:14:16;10.68;;;7.50;;
18853;SDS011;9556;49.374;19.446;2023-04-09T05:16:45;12.63;;;8.20;;
18853;SDS011;9556;49.374;19.446;2023-04-09T05:19:12;11.77;;;7.82;;
18853;SDS011;9556;49.374;19.446;2023-04-09T05:21:39;10.83;;;7.57;;
18853;SDS011;9556;49.374;19.446;2023-04-09T05:24:06;11.95;;;8.15;;
18853;SDS011;9556;49.374;19.446;2023-04-09T05:26:34;10.20;;;7.47;;
18853;SDS011;9556;49.374;19.446;2023-04-09T05:29:02;10.93;;;7.65;;
18853;SDS011;9556;49.374;19.446;2023-04-09T05:31:29;10.53;;;7.60;;
18853;SDS011;9556;49.374;19.446;2023-04-09T05:33:57;11.53;;;7.20;;
18853;SDS011;9556;49.374;19.446;2023-04-09T05:36:24;11.87;;;7.97;;
18853;SDS011;9556;49.374;19.446;2023-04-09T05:38:51;12.20;;;9.32;;
18853;SDS011;9556;49.374;19.446;2023-04-09T05:41:18;12.00;;;8.70;;
18853;SDS011;9556;49.374;19.446;2023-04-09T05:43:45;14.70;;;10.07;;
18853;SDS011;9556;49.374;19.446;2023-04-09T05:46:14;13.55;;;9.35;;
18853;SDS011;9556;49.374;19.446;2023-04-09T05:48:41;12.37;;;8.83;;
18853;SDS011;9556;49.374;19.446;2023-04-09T05:51:08;12.63;;;8.80;;
18853;SDS011;9556;49.374;19.446;2023-04-09T05:53:35;12.32;;;8.20;;
18853;SDS011;9556;49.374;19.446;2023-04-09T05:56:03;13.67;;;9.50;;
18853;SDS011;9556;49.374;19.446;2023-04-09T05:58:38;14.17;;;9.97;;
18853;SDS011;9556;49.374;19.446;2023-04-09T06:01:05;15.03;;;10.13;;
18853;SDS011;9556;49.374;19.446;2023-04-09T06:03:34;15.73;;;10.20;;
18853;SDS011;9556;49.374;19.446;2023-04-09T06:06:01;15.02;;;9.93;;
18853;SDS011;9556;49.374;19.446;2023-04-09T06:08:28;12.05;;;8.52;;
18853;SDS011;9556;49.374;19.446;2023-04-09T06:10:55;12.20;;;8.57;;
18853;SDS011;9556;49.374;19.446;2023-04-09T06:13:22;11.10;;;8.47;;
18853;SDS011;9556;49.374;19.446;2023-04-09T06:15:50;16.63;;;9.80;;
18853;SDS011;9556;49.374;19.446;2023-04-09T06:18:17;14.03;;;9.10;;
18853;SDS011;9556;49.374;19.446;2023-04-09T06:20:45;13.90;;;9.90;;
18853;SDS011;9556;49.374;19.446;2023-04-09T06:23:13;17.67;;;9.77;;
18853;SDS011;9556;49.374;19.446;2023-04-09T06:25:40;14.50;;;9.13;;
18853;SDS011;9556;49.374;19.446;2023-04-09T06:28:07;16.43;;;10.33;;
18853;SDS011;9556;49.374;19.446;2023-04-09T06:30:34;14.03;;;9.07;;
18853;SDS011;9556;49.374;19.446;2023-04-09T06:33:01;15.57;;;9.30;;
18853;SDS011;9556;49.374;19.446;2023-04-09T06:35:29;14.38;;;9.77;;
18853;SDS011;9556;49.374;19.446;2023-04-09T06:37:57;13.77;;;9.40;;
18853;SDS011;9556;49.374;19.446;2023-04-09T06:40:25;14.37;;;9.90;;
18853;SDS011;9556;49.374;19.446;2023-04-09T06:42:52;13.82;;;9.52;;
18853;SDS011;9556;49.374;19.446;2023-04-09T06:45:19;13.88;;;8.27;;
18853;SDS011;9556;49.374;19.446;2023-04-09T06:47:46;17.42;;;10.73;;
18853;SDS011;9556;49.374;19.446;2023-04-09T06:50:14;15.73;;;9.03;;
18853;SDS011;9556;49.374;19.446;2023-04-09T06:52:41;18.53;;;9.70;;
18853;SDS011;9556;49.374;19.446;2023-04-09T06:55:09;15.43;;;9.50;;
18853;SDS011;9556;49.374;19.446;2023-04-09T06:57:36;14.70;;;9.68;;
18853;SDS011;9556;49.374;19.446;2023-04-09T07:00:04;16.93;;;9.20;;
18853;SDS011;9556;49.374;19.446;2023-04-09T07:02:32;12.17;;;8.63;;
18853;SDS011;9556;49.374;19.446;2023-04-09T07:04:59;15.85;;;9.40;;
18853;SDS011;9556;49.374;19.446;2023-04-09T07:07:27;19.92;;;9.13;;
18853;SDS011;9556;49.374;19.446;2023-04-09T07:09:54;14.00;;;8.77;;
18853;SDS011;9556;49.374;19.446;2023-04-09T07:12:29;12.17;;;8.33;;
18853;SDS011;9556;49.374;19.446;2023-04-09T07:14:56;14.35;;;9.15;;
18853;SDS011;9556;49.374;19.446;2023-04-09T07:17:24;13.57;;;8.63;;
18853;SDS011;9556;49.374;19.446;2023-04-09T07:19:51;18.58;;;9.48;;
18853;SDS011;9556;49.374;19.446;2023-04-09T07:22:19;13.20;;;9.05;;
18853;SDS011;9556;49.374;19.446;2023-04-09T07:24:46;16.47;;;8.97;;
18853;SDS011;9556;49.374;19.446;2023-04-09T07:27:17;14.30;;;8.53;;
18853;SDS011;9556;49.374;19.446;2023-04-09T07:29:46;15.73;;;9.00;;
18853;SDS011;9556;49.374;19.446;2023-04-09T07:32:13;11.70;;;8.10;;
18853;SDS011;9556;49.374;19.446;2023-04-09T07:34:41;13.43;;;8.70;;
18853;SDS011;9556;49.374;19.446;2023-04-09T07:37:08;12.35;;;8.52;;
18853;SDS011;9556;49.374;19.446;2023-04-09T07:39:36;14.38;;;9.07;;
18853;SDS011;9556;49.374;19.446;2023-04-09T07:42:03;12.23;;;8.40;;
18853;SDS011;9556;49.374;19.446;2023-04-09T07:44:32;12.38;;;8.02;;
18853;SDS011;9556;49.374;19.446;2023-04-09T07:47:02;13.65;;;7.97;;
18853;SDS011;9556;49.374;19.446;2023-04-09T07:49:29;12.48;;;7.55;;
18853;SDS011;9556;49.374;19.446;2023-04-09T07:51:57;11.50;;;7.75;;
18853;SDS011;9556;49.374;19.446;2023-04-09T07:54:24;9.53;;;7.43;;
18853;SDS011;9556;49.374;19.446;2023-04-09T07:56:52;15.15;;;7.97;;
18853;SDS011;9556;49.374;19.446;2023-04-09T07:59:20;12.93;;;8.57;;
18853;SDS011;9556;49.374;19.446;2023-04-09T08:01:47;12.02;;;7.57;;
18853;SDS011;9556;49.374;19.446;2023-04-09T08:04:16;14.77;;;8.48;;
18853;SDS011;9556;49.374;19.446;2023-04-09T08:06:43;11.60;;;7.97;;
18853;SDS011;9556;49.374;19.446;2023-04-09T08:09:14;11.88;;;7.55;;
18853;SDS011;9556;49.374;19.446;2023-04-09T08:11:41;11.25;;;7.78;;
18853;SDS011;9556;49.374;19.446;2023-04-09T08:14:09;14.37;;;8.10;;
18853;SDS011;9556;49.374;19.446;2023-04-09T08:16:38;13.02;;;7.65;;
18853;SDS011;9556;49.374;19.446;2023-04-09T08:19:06;10.48;;;7.95;;
18853;SDS011;9556;49.374;19.446;2023-04-09T08:21:35;11.38;;;7.88;;
18853;SDS011;9556;49.374;19.446;2023-04-09T08:24:02;10.57;;;7.30;;
18853;SDS011;9556;49.374;19.446;2023-04-09T08:26:30;10.27;;;7.38;;
18853;SDS011;9556;49.374;19.446;2023-04-09T08:28:57;11.35;;;7.75;;
18853;SDS011;9556;49.374;19.446;2023-04-09T08:31:24;12.23;;;7.63;;
18853;SDS011;9556;49.374;19.446;2023-04-09T08:33:51;13.40;;;8.35;;
18853;SDS011;9556;49.374;19.446;2023-04-09T08:36:18;11.13;;;7.78;;
18853;SDS011;9556;49.374;19.446;2023-04-09T08:38:47;9.97;;;7.70;;
18853;SDS011;9556;49.374;19.446;2023-04-09T08:41:17;10.83;;;7.37;;
18853;SDS011;9556;49.374;19.446;2023-04-09T08:43:45;10.05;;;7.03;;
18853;SDS011;9556;49.374;19.446;2023-04-09T08:46:13;9.77;;;7.10;;
18853;SDS011;9556;49.374;19.446;2023-04-09T08:48:41;11.20;;;7.73;;
18853;SDS011;9556;49.374;19.446;2023-04-09T08:51:11;10.53;;;7.43;;
18853;SDS011;9556;49.374;19.446;2023-04-09T08:53:39;11.93;;;7.00;;
18853;SDS011;9556;49.374;19.446;2023-04-09T08:56:10;10.63;;;7.13;;
18853;SDS011;9556;49.374;19.446;2023-04-09T08:58:39;8.93;;;6.53;;
18853;SDS011;9556;49.374;19.446;2023-04-09T09:01:16;10.57;;;7.20;;
18853;SDS011;9556;49.374;19.446;2023-04-09T09:03:51;10.50;;;7.15;;
18853;SDS011;9556;49.374;19.446;2023-04-09T09:06:19;8.63;;;6.60;;
18853;SDS011;9556;49.374;19.446;2023-04-09T09:08:51;9.57;;;6.80;;
18853;SDS011;9556;49.374;19.446;2023-04-09T09:11:26;9.87;;;7.30;;
18853;SDS011;9556;49.374;19.446;2023-04-09T09:13:57;9.23;;;6.77;;
18853;SDS011;9556;49.374;19.446;2023-04-09T09:16:25;9.70;;;6.78;;
18853;SDS011;9556;49.374;19.446;2023-04-09T09:18:52;9.27;;;6.60;;
18853;SDS011;9556;49.374;19.446;2023-04-09T09:21:20;10.45;;;7.30;;
18853;SDS011;9556;49.374;19.446;2023-04-09T09:23:48;10.03;;;6.83;;
18853;SDS011;9556;49.374;19.446;2023-04-09T09:26:16;10.90;;;7.33;;
18853;SDS011;9556;49.374;19.446;2023-04-09T09:28:46;8.55;;;6.32;;
18853;SDS011;9556;49.374;19.446;2023-04-09T09:31:13;8.60;;;6.57;;
18853;SDS011;9556;49.374;19.446;2023-04-09T09:33:41;10.57;;;6.57;;
18853;SDS011;9556;49.374;19.446;2023-04-09T09:36:08;9.18;;;6.75;;
18853;SDS011;9556;49.374;19.446;2023-04-09T09:41:21;9.37;;;7.10;;
18853;SDS011;9556;49.374;19.446;2023-04-09T09:43:50;9.27;;;6.80;;
18853;SDS011;9556;49.374;19.446;2023-04-09T09:46:17;8.43;;;6.50;;
18853;SDS011;9556;49.374;19.446;2023-04-09T09:48:45;11.37;;;6.93;;
18853;SDS011;9556;49.374;19.446;2023-04-09T09:51:13;10.15;;;6.50;;
18853;SDS011;9556;49.374;19.446;2023-04-09T09:53:42;9.07;;;6.70;;
18853;SDS011;9556;49.374;19.446;2023-04-09T09:56:13;7.97;;;6.20;;
18853;SDS011;9556;49.374;19.446;2023-04-09T09:58:43;8.98;;;7.00;;
18853;SDS011;9556;49.374;19.446;2023-04-09T10:01:12;9.57;;;6.43;;
18853;SDS011;9556;49.374;19.446;2023-04-09T10:03:40;9.67;;;6.60;;
18853;SDS011;9556;49.374;19.446;2023-04-09T10:06:09;8.68;;;6.72;;
18853;SDS011;9556;49.374;19.446;2023-04-09T10:08:37;9.35;;;6.53;;
18853;SDS011;9556;49.374;19.446;2023-04-09T10:11:06;8.25;;;6.18;;
18853;SDS011;9556;49.374;19.446;2023-04-09T10:13:34;9.33;;;6.50;;
18853;SDS011;9556;49.374;19.446;2023-04-09T10:16:02;8.07;;;6.20;;
18853;SDS011;9556;49.374;19.446;2023-04-09T10:18:30;8.95;;;6.63;;
18853;SDS011;9556;49.374;19.446;2023-04-09T10:21:00;9.30;;;6.30;;
18853;SDS011;9556;49.374;19.446;2023-04-09T10:23:30;8.55;;;6.38;;
18853;SDS011;9556;49.374;19.446;2023-04-09T10:25:58;7.85;;;6.05;;
18853;SDS011;9556;49.374;19.446;2023-04-09T10:28:25;8.40;;;6.30;;
18853;SDS011;9556;49.374;19.446;2023-04-09T10:30:52;8.23;;;6.00;;
18853;SDS011;9556;49.374;19.446;2023-04-09T10:33:23;7.70;;;5.80;;
18853;SDS011;9556;49.374;19.446;2023-04-09T10:35:53;7.35;;;5.45;;
18853;SDS011;9556;49.374;19.446;2023-04-09T10:38:35;8.50;;;5.95;;
18853;SDS011;9556;49.374;19.446;2023-04-09T10:41:05;6.45;;;5.10;;
18853;SDS011;9556;49.374;19.446;2023-04-09T10:43:33;6.82;;;5.25;;
18853;SDS011;9556;49.374;19.446;2023-04-09T10:46:03;7.40;;;5.15;;
18853;SDS011;9556;49.374;19.446;2023-04-09T10:48:31;7.50;;;5.67;;
18853;SDS011;9556;49.374;19.446;2023-04-09T10:51:00;7.23;;;5.90;;
18853;SDS011;9556;49.374;19.446;2023-04-09T10:53:29;7.73;;;5.80;;
18853;SDS011;9556;49.374;19.446;2023-04-09T10:55:58;7.72;;;5.97;;
18853;SDS011;9556;49.374;19.446;2023-04-09T10:58:26;7.15;;;5.15;;
18853;SDS011;9556;49.374;19.446;2023-04-09T11:00:54;8.00;;;6.30;;
18853;SDS011;9556;49.374;19.446;2023-04-09T11:03:22;7.20;;;5.73;;
18853;SDS011;9556;49.374;19.446;2023-04-09T11:05:54;7.30;;;5.55;;
18853;SDS011;9556;49.374;19.446;2023-04-09T11:08:26;6.97;;;5.18;;
18853;SDS011;9556;49.374;19.446;2023-04-09T11:10:53;7.38;;;5.53;;
18853;SDS011;9556;49.374;19.446;2023-04-09T11:13:22;6.88;;;5.10;;
18853;SDS011;9556;49.374;19.446;2023-04-09T11:15:50;7.20;;;5.70;;
18853;SDS011;9556;49.374;19.446;2023-04-09T11:18:20;6.80;;;5.53;;
18853;SDS011;9556;49.374;19.446;2023-04-09T11:20:47;7.10;;;5.13;;
18853;SDS011;9556;49.374;19.446;2023-04-09T11:23:15;7.32;;;5.50;;
18853;SDS011;9556;49.374;19.446;2023-04-09T11:25:46;8.60;;;5.70;;
18853;SDS011;9556;49.374;19.446;2023-04-09T11:28:14;7.63;;;5.82;;
18853;SDS011;9556;49.374;19.446;2023-04-09T11:30:41;7.10;;;5.35;;
18853;SDS011;9556;49.374;19.446;2023-04-09T11:33:10;5.97;;;4.47;;
18853;SDS011;9556;49.374;19.446;2023-04-09T11:35:37;6.20;;;4.57;;
18853;SDS011;9556;49.374;19.446;2023-04-09T11:38:05;5.70;;;4.53;;
18853;SDS011;9556;49.374;19.446;2023-04-09T11:40:32;6.05;;;4.65;;
18853;SDS011;9556;49.374;19.446;2023-04-09T11:43:01;6.50;;;4.88;;
18853;SDS011;9556;49.374;19.446;2023-04-09T11:45:29;6.60;;;5.18;;
18853;SDS011;9556;49.374;19.446;2023-04-09T11:47:57;6.22;;;4.35;;
18853;SDS011;9556;49.374;19.446;2023-04-09T11:50:24;6.78;;;4.75;;
18853;SDS011;9556;49.374;19.446;2023-04-09T11:52:51;6.75;;;4.68;;
18853;SDS011;9556;49.374;19.446;2023-04-09T11:55:22;5.85;;;4.63;;
18853;SDS011;9556;49.374;19.446;2023-04-09T11:57:50;6.55;;;4.78;;
18853;SDS011;9556;49.374;19.446;2023-04-09T12:00:19;6.43;;;4.88;;
18853;SDS011;9556;49.374;19.446;2023-04-09T12:02:48;6.72;;;4.72;;
18853;SDS011;9556;49.374;19.446;2023-04-09T12:05:22;7.15;;;4.88;;
18853;SDS011;9556;49.374;19.446;2023-04-09T12:07:50;6.97;;;5.17;;
18853;SDS011;9556;49.374;19.446;2023-04-09T12:10:17;6.00;;;4.88;;
18853;SDS011;9556;49.374;19.446;2023-04-09T12:12:45;6.18;;;4.28;;
18853;SDS011;9556;49.374;19.446;2023-04-09T12:15:21;6.53;;;4.65;;
18853;SDS011;9556;49.374;19.446;2023-04-09T12:17:49;7.23;;;5.03;;
18853;SDS011;9556;49.374;19.446;2023-04-09T12:20:27;5.15;;;4.43;;
18853;SDS011;9556;49.374;19.446;2023-04-09T12:22:56;6.15;;;4.50;;
18853;SDS011;9556;49.374;19.446;2023-04-09T12:25:24;5.95;;;4.63;;
18853;SDS011;9556;49.374;19.446;2023-04-09T12:27:51;4.95;;;4.25;;
18853;SDS011;9556;49.374;19.446;2023-04-09T12:30:21;4.97;;;4.07;;
18853;SDS011;9556;49.374;19.446;2023-04-09T12:32:48;5.90;;;4.47;;
18853;SDS011;9556;49.374;19.446;2023-04-09T12:35:15;5.82;;;4.50;;
18853;SDS011;9556;49.374;19.446;2023-04-09T12:37:42;6.68;;;4.40;;
18853;SDS011;9556;49.374;19.446;2023-04-09T12:40:10;5.10;;;4.23;;
18853;SDS011;9556;49.374;19.446;2023-04-09T12:42:38;5.85;;;4.53;;
18853;SDS011;9556;49.374;19.446;2023-04-09T12:45:06;5.95;;;4.50;;
18853;SDS011;9556;49.374;19.446;2023-04-09T12:47:34;5.50;;;4.30;;
18853;SDS011;9556;49.374;19.446;2023-04-09T12:50:02;5.22;;;4.32;;
18853;SDS011;9556;49.374;19.446;2023-04-09T12:52:29;6.60;;;4.43;;
18853;SDS011;9556;49.374;19.446;2023-04-09T12:54:56;5.70;;;4.40;;
18853;SDS011;9556;49.374;19.446;2023-04-09T12:57:23;5.53;;;4.40;;
18853;SDS011;9556;49.374;19.446;2023-04-09T12:59:50;6.03;;;4.60;;
18853;SDS011;9556;49.374;19.446;2023-04-09T13:02:18;5.72;;;4.45;;
18853;SDS011;9556;49.374;19.446;2023-04-09T13:04:47;10.60;;;7.05;;
18853;SDS011;9556;49.374;19.446;2023-04-09T13:07:15;12.10;;;7.95;;
18853;SDS011;9556;49.374;19.446;2023-04-09T13:09:43;21.30;;;12.27;;
18853;SDS011;9556;49.374;19.446;2023-04-09T13:12:11;20.53;;;11.07;;
18853;SDS011;9556;49.374;19.446;2023-04-09T13:14:38;16.80;;;10.40;;
18853;SDS011;9556;49.374;19.446;2023-04-09T13:17:05;16.67;;;9.95;;
18853;SDS011;9556;49.374;19.446;2023-04-09T13:19:33;14.02;;;8.85;;
18853;SDS011;9556;49.374;19.446;2023-04-09T13:22:01;11.68;;;8.13;;
18853;SDS011;9556;49.374;19.446;2023-04-09T13:24:31;10.85;;;6.95;;
18853;SDS011;9556;49.374;19.446;2023-04-09T13:26:59;9.70;;;6.70;;
18853;SDS011;9556;49.374;19.446;2023-04-09T13:29:26;10.38;;;6.80;;
18853;SDS011;9556;49.374;19.446;2023-04-09T13:31:54;9.55;;;6.68;;
18853;SDS011;9556;49.374;19.446;2023-04-09T13:34:22;10.57;;;7.27;;
18853;SDS011;9556;49.374;19.446;2023-04-09T13:36:49;9.43;;;6.65;;
18853;SDS011;9556;49.374;19.446;2023-04-09T13:39:18;9.93;;;6.50;;
18853;SDS011;9556;49.374;19.446;2023-04-09T13:41:46;9.73;;;6.93;;
18853;SDS011;9556;49.374;19.446;2023-04-09T13:44:13;8.07;;;6.13;;
18853;SDS011;9556;49.374;19.446;2023-04-09T13:46:40;9.50;;;6.75;;
18853;SDS011;9556;49.374;19.446;2023-04-09T13:49:07;9.82;;;6.55;;
18853;SDS011;9556;49.374;19.446;2023-04-09T13:51:34;9.60;;;6.50;;
18853;SDS011;9556;49.374;19.446;2023-04-09T13:54:02;8.52;;;6.60;;
18853;SDS011;9556;49.374;19.446;2023-04-09T13:56:30;10.03;;;6.67;;
18853;SDS011;9556;49.374;19.446;2023-04-09T13:58:58;7.88;;;6.00;;
18853;SDS011;9556;49.374;19.446;2023-04-09T14:01:25;9.02;;;6.20;;
18853;SDS011;9556;49.374;19.446;2023-04-09T14:03:52;9.63;;;6.38;;
18853;SDS011;9556;49.374;19.446;2023-04-09T14:06:19;9.65;;;6.25;;
18853;SDS011;9556;49.374;19.446;2023-04-09T14:08:46;8.77;;;6.18;;
18853;SDS011;9556;49.374;19.446;2023-04-09T14:11:14;8.40;;;5.95;;
18853;SDS011;9556;49.374;19.446;2023-04-09T14:13:42;8.90;;;6.15;;
18853;SDS011;9556;49.374;19.446;2023-04-09T14:16:10;9.15;;;6.20;;
18853;SDS011;9556;49.374;19.446;2023-04-09T14:18:37;8.50;;;6.15;;
18853;SDS011;9556;49.374;19.446;2023-04-09T14:21:04;8.32;;;6.15;;
18853;SDS011;9556;49.374;19.446;2023-04-09T14:23:32;9.27;;;6.53;;
18853;SDS011;9556;49.374;19.446;2023-04-09T14:25:59;10.63;;;6.90;;
18853;SDS011;9556;49.374;19.446;2023-04-09T14:28:27;9.02;;;6.50;;
18853;SDS011;9556;49.374;19.446;2023-04-09T14:30:55;8.95;;;6.38;;
18853;SDS011;9556;49.374;19.446;2023-04-09T14:33:22;8.75;;;6.47;;
18853;SDS011;9556;49.374;19.446;2023-04-09T14:35:49;10.95;;;8.10;;
18853;SDS011;9556;49.374;19.446;2023-04-09T14:38:17;9.70;;;7.03;;
18853;SDS011;9556;49.374;19.446;2023-04-09T14:40:44;10.45;;;7.40;;
18853;SDS011;9556;49.374;19.446;2023-04-09T14:43:11;8.63;;;6.20;;
18853;SDS011;9556;49.374;19.446;2023-04-09T14:45:38;9.77;;;7.03;;